< < Back
Terminal Aerodrome Forecast


Current Version              Previous Versions:   1  2  3  4  5  6  7  8  9  

Terminal Aerodrome Forecast

120
FTUS44 KMRX 020520
TAFTYS
TAF
KTYS 020520Z 0206/0306 03003KT P6SM SKC=

Latest METAR

089
SAUS80 KWBC 031000 RRA
MTRTYS
METAR KTYS 030953Z 00000KT 10SM CLR 20/18 A2992 RMK AO2 SLP119 T02000183
$


USA.gov is the U.S. government's official web portal to all federal, state and local government web resources and services.